createdAt,value
2022-12-08T00:01:08.456Z,19.85
2022-12-08T00:03:34.880Z,19.80
2022-12-08T00:06:20.471Z,20.45
2022-12-08T00:09:05.557Z,19.05
2022-12-08T00:11:31.852Z,20.17
2022-12-08T00:13:58.231Z,19.63
2022-12-08T00:16:24.477Z,19.95
2022-12-08T00:18:50.753Z,18.70
2022-12-08T00:21:17.060Z,18.67
2022-12-08T00:23:43.241Z,19.67
2022-12-08T00:26:09.571Z,19.52
2022-12-08T00:28:35.871Z,19.70
2022-12-08T00:31:08.101Z,20.45
2022-12-08T00:33:34.534Z,19.90
2022-12-08T00:36:11.298Z,19.25
2022-12-08T00:38:38.203Z,19.65
2022-12-08T00:41:07.270Z,19.67
2022-12-08T00:43:33.471Z,19.95
2022-12-08T00:45:59.716Z,18.48
2022-12-08T00:48:25.939Z,20.13
2022-12-08T00:50:52.150Z,19.17
2022-12-08T00:53:18.383Z,20.85
2022-12-08T00:55:44.601Z,20.98
2022-12-08T00:58:10.838Z,20.25
2022-12-08T01:00:37.015Z,19.98
2022-12-08T01:03:03.313Z,20.08
2022-12-08T01:05:29.563Z,20.33
2022-12-08T01:07:55.840Z,20.85
2022-12-08T01:10:22.069Z,20.75
2022-12-08T01:12:48.303Z,21.00
2022-12-08T01:15:14.536Z,21.08
2022-12-08T01:17:40.766Z,20.38
2022-12-08T01:20:07.504Z,21.77
2022-12-08T01:22:34.522Z,21.70
2022-12-08T01:25:00.724Z,19.60
2022-12-08T01:27:26.944Z,20.45
2022-12-08T01:29:53.160Z,19.83
2022-12-08T01:32:19.367Z,20.23
2022-12-08T01:34:45.585Z,21.45
2022-12-08T01:37:12.528Z,20.25
2022-12-08T01:39:40.738Z,20.65
2022-12-08T01:42:18.262Z,19.35
2022-12-08T01:44:44.473Z,19.95
2022-12-08T01:47:11.364Z,19.20
2022-12-08T01:49:37.593Z,19.52
2022-12-08T01:52:08.392Z,19.48
2022-12-08T01:54:36.712Z,18.02
2022-12-08T01:57:05.712Z,18.55
2022-12-08T01:59:33.998Z,17.55
2022-12-08T02:02:00.500Z,17.15
2022-12-08T02:04:26.784Z,17.23
2022-12-08T02:06:53.442Z,16.40
2022-12-08T02:09:20.125Z,15.95
2022-12-08T02:11:46.566Z,16.77
2022-12-08T02:14:13.472Z,16.90
2022-12-08T02:16:40.688Z,16.40
2022-12-08T02:19:33.016Z,14.90
2022-12-08T02:22:11.515Z,14.90
2022-12-08T02:24:39.668Z,14.52
2022-12-08T02:27:24.563Z,13.80
2022-12-08T02:30:09.178Z,14.57
2022-12-08T02:32:45.610Z,14.88
2022-12-08T02:35:18.410Z,14.57
2022-12-08T02:37:49.861Z,13.02
2022-12-08T02:42:46.714Z,13.55
2022-12-08T02:45:27.905Z,13.67
2022-12-08T02:47:54.197Z,13.25
2022-12-08T02:50:20.743Z,13.32
2022-12-08T02:52:47.727Z,14.07
2022-12-08T02:55:13.881Z,12.85
2022-12-08T02:57:58.827Z,12.85
2022-12-08T03:00:27.545Z,13.05
2022-12-08T03:02:56.967Z,12.68
2022-12-08T03:05:29.474Z,12.30
2022-12-08T03:08:04.854Z,13.15
2022-12-08T03:10:34.026Z,12.32
2022-12-08T03:13:09.771Z,12.63
2022-12-08T03:15:36.599Z,12.27
2022-12-08T03:18:03.355Z,11.00
2022-12-08T03:20:31.065Z,11.88
2022-12-08T03:22:59.205Z,12.68
2022-12-08T03:25:27.296Z,13.30
2022-12-08T03:27:53.602Z,12.13
2022-12-08T03:30:19.883Z,11.90
2022-12-08T03:32:48.998Z,12.68
2022-12-08T03:35:16.673Z,11.60
2022-12-08T03:37:42.964Z,12.48
2022-12-08T03:40:10.994Z,13.43
2022-12-08T03:42:37.178Z,12.65
2022-12-08T03:45:04.536Z,13.20
2022-12-08T03:47:30.743Z,13.05
2022-12-08T03:49:56.979Z,13.40
2022-12-08T03:52:23.201Z,13.25
2022-12-08T03:54:49.437Z,13.60
2022-12-08T03:57:15.617Z,12.68
2022-12-08T03:59:41.829Z,13.48
2022-12-08T04:02:08.073Z,12.82
2022-12-08T04:04:34.356Z,13.18
2022-12-08T04:07:00.681Z,13.30
2022-12-08T04:09:26.950Z,12.40
2022-12-08T04:11:53.147Z,12.65
2022-12-08T04:14:19.404Z,14.07
2022-12-08T04:16:45.598Z,12.23
2022-12-08T04:19:11.847Z,12.90
2022-12-08T04:21:38.026Z,12.60
2022-12-08T04:24:04.293Z,12.05
2022-12-08T04:26:30.507Z,11.43
2022-12-08T04:28:56.767Z,11.98
2022-12-08T04:31:23.056Z,11.57
2022-12-08T04:33:49.302Z,11.95
2022-12-08T04:36:15.509Z,11.85
2022-12-08T04:38:41.742Z,11.30
2022-12-08T04:41:08.236Z,11.52
2022-12-08T04:43:35.205Z,12.20
2022-12-08T04:46:01.559Z,13.70
2022-12-08T04:48:27.761Z,12.15
2022-12-08T04:50:53.943Z,13.57
2022-12-08T04:53:21.166Z,13.70
2022-12-08T04:55:49.481Z,14.00
2022-12-08T04:58:16.906Z,14.30
2022-12-08T05:00:43.652Z,14.05
2022-12-08T05:03:10.214Z,13.52
2022-12-08T05:05:36.447Z,14.18
2022-12-08T05:08:02.766Z,14.23
2022-12-08T05:10:29.065Z,15.25
2022-12-08T05:12:55.336Z,15.30
2022-12-08T05:15:21.972Z,14.15
2022-12-08T05:17:48.172Z,15.55
2022-12-08T05:20:14.496Z,16.58
2022-12-08T05:22:40.747Z,16.38
2022-12-08T05:25:07.168Z,16.55
2022-12-08T05:27:33.398Z,17.25
2022-12-08T05:29:59.665Z,17.38
2022-12-08T05:32:25.871Z,17.40
2022-12-08T05:34:52.086Z,18.45
2022-12-08T05:37:18.294Z,19.42
2022-12-08T05:39:44.502Z,18.25
2022-12-08T05:42:10.698Z,19.45
2022-12-08T05:44:36.913Z,19.60
2022-12-08T05:47:03.142Z,21.50
2022-12-08T05:49:29.353Z,21.60
2022-12-08T05:51:55.592Z,22.35
2022-12-08T05:54:21.828Z,21.23
2022-12-08T05:56:49.151Z,20.80
2022-12-08T05:59:16.504Z,21.73
2022-12-08T06:01:42.781Z,21.40
2022-12-08T06:04:09.475Z,21.27
2022-12-08T06:06:36.086Z,21.33
2022-12-08T06:09:03.295Z,19.92
2022-12-08T06:11:30.378Z,21.30
2022-12-08T06:13:57.334Z,21.25
2022-12-08T06:16:24.460Z,21.10
2022-12-08T06:18:50.728Z,20.02
2022-12-08T06:21:17.429Z,21.63
2022-12-08T06:23:43.841Z,20.88
2022-12-08T06:26:11.928Z,20.27
2022-12-08T06:28:38.835Z,21.17
2022-12-08T06:31:09.513Z,21.73
2022-12-08T06:33:36.078Z,20.02
2022-12-08T06:36:02.372Z,19.17
2022-12-08T06:38:28.635Z,20.20
2022-12-08T06:40:55.673Z,19.08
2022-12-08T06:43:22.110Z,18.63
2022-12-08T06:45:48.698Z,19.52
2022-12-08T06:48:14.937Z,19.70
2022-12-08T06:50:41.189Z,19.75
2022-12-08T06:53:07.619Z,20.23
2022-12-08T06:58:20.336Z,19.42
2022-12-08T07:00:46.632Z,18.83
2022-12-08T07:03:14.830Z,19.92
2022-12-08T07:05:41.156Z,20.17
2022-12-08T07:08:08.271Z,19.70
2022-12-08T07:10:34.908Z,19.90
2022-12-08T07:13:01.109Z,19.65
2022-12-08T07:15:27.327Z,18.50
2022-12-08T07:17:59.360Z,18.70
2022-12-08T07:20:26.191Z,17.00
2022-12-08T07:22:52.478Z,17.45
2022-12-08T07:25:19.041Z,19.70
2022-12-08T07:27:45.803Z,19.52
2022-12-08T07:30:12.545Z,19.23
2022-12-08T07:32:39.029Z,19.40
2022-12-08T07:35:06.083Z,18.70
2022-12-08T07:37:35.796Z,18.48
2022-12-08T07:40:02.305Z,18.25
2022-12-08T07:42:28.802Z,17.55
2022-12-08T07:44:54.998Z,19.63
2022-12-08T07:47:21.267Z,18.88
2022-12-08T07:49:47.461Z,17.92
2022-12-08T07:52:13.650Z,19.05
2022-12-08T07:54:39.869Z,17.23
2022-12-08T07:57:06.463Z,18.38
2022-12-08T07:59:32.813Z,18.67
2022-12-08T08:02:21.355Z,19.27
2022-12-08T08:04:45.334Z,17.38
2022-12-08T08:07:11.682Z,17.10
2022-12-08T08:09:38.039Z,17.83
2022-12-08T08:12:29.683Z,17.33
2022-12-08T08:14:50.633Z,16.55
2022-12-08T08:17:16.913Z,17.13
2022-12-08T08:19:43.138Z,18.23
2022-12-08T08:22:09.357Z,18.00
2022-12-08T08:24:38.153Z,18.70
2022-12-08T08:27:07.923Z,16.88
2022-12-08T08:29:34.133Z,18.27
2022-12-08T08:32:00.350Z,18.10
2022-12-08T08:34:26.569Z,18.05
2022-12-08T08:36:52.931Z,17.63
2022-12-08T08:39:19.188Z,16.25
2022-12-08T08:41:45.423Z,17.42
2022-12-08T08:44:12.856Z,16.23
2022-12-08T08:46:39.108Z,16.95
2022-12-08T08:49:05.344Z,16.33
2022-12-08T08:51:31.578Z,15.40
2022-12-08T08:53:58.158Z,16.38
2022-12-08T08:56:24.481Z,16.38
2022-12-08T08:58:51.561Z,16.85
2022-12-08T09:01:23.497Z,17.60
2022-12-08T09:03:49.800Z,18.92
2022-12-08T09:06:16.458Z,15.13
2022-12-08T09:08:43.424Z,15.85
2022-12-08T09:11:10.003Z,14.63
2022-12-08T09:13:36.659Z,13.93
2022-12-08T09:16:06.635Z,14.25
2022-12-08T09:18:33.106Z,14.65
2022-12-08T09:21:12.914Z,13.02
2022-12-08T09:23:39.873Z,13.27
2022-12-08T09:26:06.349Z,11.98
2022-12-08T09:28:33.157Z,12.18
2022-12-08T09:30:59.469Z,11.90
2022-12-08T09:33:25.725Z,10.63
2022-12-08T09:35:51.945Z,10.73
2022-12-08T09:38:18.304Z,11.38
2022-12-08T09:40:52.194Z,11.60
2022-12-08T09:43:36.671Z,10.70
2022-12-08T09:46:05.961Z,10.43
2022-12-08T09:48:33.741Z,10.02
2022-12-08T09:51:00.166Z,11.05
2022-12-08T09:53:47.929Z,11.13
2022-12-08T09:56:16.725Z,9.63
2022-12-08T09:58:44.188Z,9.15
2022-12-08T10:01:10.870Z,7.43
2022-12-08T10:03:37.446Z,6.78
2022-12-08T10:06:18.460Z,6.72
2022-12-08T10:08:56.153Z,6.47
2022-12-08T10:11:29.510Z,6.50
2022-12-08T10:14:04.284Z,7.00
2022-12-08T10:16:34.097Z,6.78
2022-12-08T10:19:20.585Z,7.45
2022-12-08T10:21:47.215Z,7.93
2022-12-08T10:24:18.622Z,8.20
2022-12-08T10:29:14.237Z,8.85
2022-12-08T10:31:40.581Z,11.10
2022-12-08T10:34:17.205Z,9.45
2022-12-08T10:36:57.652Z,10.35
2022-12-08T10:39:30.047Z,11.18
2022-12-08T10:42:06.680Z,11.70
2022-12-08T10:44:32.997Z,12.25
2022-12-08T10:46:59.335Z,11.13
2022-12-08T10:49:27.730Z,12.10
2022-12-08T10:51:53.934Z,12.05
2022-12-08T10:54:33.692Z,12.23
2022-12-08T10:57:00.013Z,11.27
2022-12-08T10:59:26.492Z,11.63
2022-12-08T11:01:54.400Z,12.15
2022-12-08T11:04:34.853Z,10.20
2022-12-08T11:07:01.562Z,9.85
2022-12-08T11:09:36.186Z,11.40
2022-12-08T11:12:12.772Z,9.98
2022-12-08T11:14:42.086Z,7.80
2022-12-08T11:17:10.338Z,6.25
2022-12-08T11:19:37.722Z,5.00
2022-12-08T11:22:20.392Z,6.05
2022-12-08T11:24:56.051Z,6.40
2022-12-08T11:27:22.425Z,6.85
2022-12-08T11:29:49.003Z,5.93
2022-12-08T11:32:15.200Z,5.97
2022-12-08T11:34:41.523Z,6.82
2022-12-08T11:37:12.281Z,6.10
2022-12-08T11:39:41.588Z,6.45
2022-12-08T11:42:08.459Z,5.65
2022-12-08T11:44:46.674Z,4.75
2022-12-08T11:47:20.419Z,4.55
2022-12-08T11:52:26.322Z,4.97
2022-12-08T11:55:04.576Z,5.15
2022-12-08T11:57:30.779Z,5.03
2022-12-08T11:59:58.006Z,6.35
2022-12-08T12:02:26.087Z,7.25
2022-12-08T12:05:04.793Z,8.77
2022-12-08T12:07:31.004Z,8.82
2022-12-08T12:09:57.201Z,8.80
2022-12-08T12:12:44.145Z,10.07
2022-12-08T12:15:19.470Z,10.52
2022-12-08T12:17:49.114Z,13.18
2022-12-08T12:20:35.592Z,17.30
2022-12-08T12:23:01.840Z,12.52
2022-12-08T12:25:28.375Z,12.63
2022-12-08T12:27:57.700Z,13.35
2022-12-08T12:30:28.478Z,12.27
2022-12-08T12:32:56.654Z,12.85
2022-12-08T12:35:28.806Z,13.88
2022-12-08T12:38:01.119Z,15.13
2022-12-08T12:40:28.685Z,12.77
2022-12-08T12:42:54.894Z,12.68
2022-12-08T12:45:21.081Z,12.88
2022-12-08T12:47:51.054Z,12.07
2022-12-08T12:50:28.032Z,12.52
2022-12-08T12:52:54.325Z,11.45
2022-12-08T12:55:21.310Z,11.32
2022-12-08T12:57:51.650Z,11.30
2022-12-08T13:00:18.996Z,11.07
2022-12-08T13:02:46.939Z,9.93
2022-12-08T13:05:13.186Z,9.93
2022-12-08T13:07:50.745Z,9.95
2022-12-08T13:10:36.531Z,10.50
2022-12-08T13:13:16.482Z,9.32
2022-12-08T13:15:56.568Z,9.25
2022-12-08T13:18:27.706Z,9.50
2022-12-08T13:21:09.249Z,11.20
2022-12-08T13:26:18.510Z,8.80
2022-12-08T13:29:11.194Z,10.40
2022-12-08T13:31:52.836Z,9.77
2022-12-08T13:34:19.038Z,10.80
2022-12-08T13:36:52.026Z,9.77
2022-12-08T13:39:27.819Z,9.85
2022-12-08T13:42:24.836Z,9.77
2022-12-08T13:48:20.315Z,11.57
2022-12-08T13:52:36.986Z,9.50
2022-12-08T13:54:35.469Z,8.90
2022-12-08T13:59:09.184Z,20.92
2022-12-08T14:01:40.928Z,10.68
2022-12-08T14:04:37.526Z,8.80
2022-12-08T14:07:00.879Z,8.52
2022-12-08T14:09:28.890Z,8.48
2022-12-08T14:12:00.104Z,7.25
2022-12-08T14:15:00.558Z,6.82
2022-12-08T14:17:18.126Z,7.03
2022-12-08T14:19:56.282Z,6.72
2022-12-08T14:22:22.526Z,6.38
2022-12-08T14:24:50.227Z,7.13
2022-12-08T14:27:18.233Z,6.85
2022-12-08T14:29:46.190Z,7.03
2022-12-08T14:32:21.598Z,6.75
2022-12-08T14:34:58.602Z,6.70
2022-12-08T14:37:29.943Z,6.50
2022-12-08T14:40:05.087Z,6.72
2022-12-08T14:42:41.474Z,7.05
2022-12-08T14:45:10.634Z,7.10
2022-12-08T14:47:36.857Z,7.60
2022-12-08T14:50:04.547Z,6.70
2022-12-08T14:52:31.298Z,6.68
2022-12-08T14:54:58.007Z,6.82
2022-12-08T14:57:35.041Z,6.85
2022-12-08T15:00:06.972Z,7.60
2022-12-08T15:02:34.272Z,7.13
2022-12-08T15:05:02.987Z,6.95
2022-12-08T15:07:46.568Z,7.15
2022-12-08T15:10:15.583Z,7.10
2022-12-08T15:12:57.249Z,7.60
2022-12-08T15:15:23.672Z,7.03
2022-12-08T15:17:51.606Z,7.05
2022-12-08T15:20:36.164Z,7.20
2022-12-08T15:23:02.592Z,7.07
2022-12-08T15:25:28.859Z,7.40
2022-12-08T15:27:56.391Z,7.53
2022-12-08T15:30:22.773Z,7.03
2022-12-08T15:32:52.127Z,6.78
2022-12-08T15:35:18.412Z,6.95
2022-12-08T15:37:44.639Z,6.68
2022-12-08T15:40:15.680Z,6.80
2022-12-08T15:42:41.887Z,6.60
2022-12-08T15:45:11.747Z,6.88
2022-12-08T15:47:37.999Z,6.63
2022-12-08T15:50:04.868Z,6.85
2022-12-08T15:52:31.450Z,6.78
2022-12-08T15:54:57.743Z,6.80
2022-12-08T16:00:51.375Z,6.97
2022-12-08T16:03:51.610Z,7.15
2022-12-08T16:06:57.660Z,7.47
2022-12-08T16:09:11.349Z,6.93
2022-12-08T16:12:06.642Z,7.07
2022-12-08T16:15:39.803Z,7.13
2022-12-08T16:17:20.681Z,7.30
2022-12-08T16:19:46.979Z,7.82
2022-12-08T16:22:52.352Z,7.10
2022-12-08T16:25:17.847Z,6.82
2022-12-08T16:30:31.712Z,7.13
2022-12-08T16:32:58.017Z,7.60
2022-12-08T16:35:24.211Z,7.65
2022-12-08T16:37:50.422Z,8.38
2022-12-08T16:40:16.624Z,8.02
2022-12-08T16:42:43.376Z,6.88
2022-12-08T16:45:20.804Z,6.85
2022-12-08T16:47:48.405Z,6.93
2022-12-08T16:50:25.467Z,7.63
2022-12-08T16:52:56.116Z,7.55
2022-12-08T16:55:22.357Z,7.50
2022-12-08T16:57:48.630Z,7.82
2022-12-08T17:00:17.471Z,8.07
2022-12-08T17:02:45.072Z,7.22
2022-12-08T17:05:15.700Z,7.65
2022-12-08T17:07:42.710Z,7.78
2022-12-08T17:10:10.220Z,7.80
2022-12-08T17:12:36.415Z,9.13
2022-12-08T17:15:04.159Z,8.35
2022-12-08T17:17:31.579Z,7.30
2022-12-08T17:19:57.840Z,8.50
2022-12-08T17:22:24.209Z,7.65
2022-12-08T17:24:50.459Z,8.07
2022-12-08T17:27:16.676Z,8.75
2022-12-08T17:29:42.875Z,7.93
2022-12-08T17:32:09.206Z,8.82
2022-12-08T17:34:35.474Z,8.25
2022-12-08T17:37:01.688Z,9.13
2022-12-08T17:39:27.926Z,12.52
2022-12-08T17:41:54.175Z,17.98
2022-12-08T17:44:20.407Z,17.88
2022-12-08T17:46:52.617Z,18.67
2022-12-08T17:49:23.629Z,18.08
2022-12-08T17:51:50.825Z,16.52
2022-12-08T17:54:18.353Z,13.23
2022-12-08T17:56:44.742Z,9.77
2022-12-08T17:59:11.803Z,9.25
2022-12-08T18:01:38.484Z,8.82
2022-12-08T18:04:05.223Z,8.73
2022-12-08T18:06:32.051Z,8.57
2022-12-08T18:08:59.127Z,8.75
2022-12-08T18:11:26.082Z,8.77
2022-12-08T18:13:52.577Z,8.60
2022-12-08T18:16:19.957Z,8.27
2022-12-08T18:18:46.350Z,8.85
2022-12-08T18:21:12.913Z,8.75
2022-12-08T18:23:40.138Z,8.35
2022-12-08T18:26:06.979Z,8.23
2022-12-08T18:28:33.210Z,8.30
2022-12-08T18:30:59.597Z,8.10
2022-12-08T18:33:26.147Z,7.97
2022-12-08T18:35:52.354Z,7.95
2022-12-08T18:38:18.835Z,8.18
2022-12-08T18:40:45.152Z,8.70
2022-12-08T18:43:11.359Z,8.77
2022-12-08T18:45:39.649Z,8.25
2022-12-08T18:48:06.578Z,8.38
2022-12-08T18:50:32.840Z,8.98
2022-12-08T18:52:59.381Z,7.90
2022-12-08T18:55:25.635Z,8.55
2022-12-08T18:57:52.030Z,9.15
2022-12-08T19:00:19.237Z,8.60
2022-12-08T19:02:45.702Z,8.55
2022-12-08T19:05:13.284Z,8.65
2022-12-08T19:07:39.713Z,9.13
2022-12-08T19:10:06.811Z,8.93
2022-12-08T19:12:33.339Z,9.23
2022-12-08T19:15:00.104Z,8.20
2022-12-08T19:17:26.327Z,8.63
2022-12-08T19:19:52.563Z,8.80
2022-12-08T19:22:18.865Z,9.18
2022-12-08T19:24:45.064Z,8.57
2022-12-08T19:27:11.499Z,8.65
2022-12-08T19:29:37.767Z,8.90
2022-12-08T19:32:05.111Z,9.23
2022-12-08T19:34:31.411Z,9.27
2022-12-08T19:36:57.848Z,9.65
2022-12-08T19:39:42.818Z,9.48
2022-12-08T19:42:31.316Z,10.18
2022-12-08T19:44:59.647Z,9.93
2022-12-08T19:47:26.817Z,9.20
2022-12-08T19:49:54.916Z,9.70
2022-12-08T19:52:21.196Z,8.60
2022-12-08T19:54:47.475Z,10.50
2022-12-08T19:57:13.772Z,10.32
2022-12-08T19:59:40.038Z,10.18
2022-12-08T20:02:06.450Z,9.63
2022-12-08T20:04:32.968Z,10.18
2022-12-08T20:06:59.314Z,9.95
2022-12-08T20:09:25.621Z,9.68
2022-12-08T20:11:54.531Z,10.35
2022-12-08T20:14:21.983Z,10.85
2022-12-08T20:16:48.734Z,11.00
2022-12-08T20:19:15.054Z,9.43
2022-12-08T20:21:41.596Z,10.45
2022-12-08T20:24:07.925Z,9.80
2022-12-08T20:26:34.218Z,10.75
2022-12-08T20:29:00.509Z,10.40
2022-12-08T20:31:28.370Z,10.68
2022-12-08T20:33:54.891Z,10.70
2022-12-08T20:36:21.724Z,11.38
2022-12-08T20:38:48.678Z,11.00
2022-12-08T20:41:18.437Z,11.43
2022-12-08T20:43:45.617Z,11.50
2022-12-08T20:46:13.330Z,11.52
2022-12-08T20:48:39.980Z,11.75
2022-12-08T20:51:06.198Z,11.70
2022-12-08T20:53:32.484Z,11.85
2022-12-08T20:55:58.909Z,10.50
2022-12-08T20:58:25.295Z,11.30
2022-12-08T21:00:51.539Z,11.52
2022-12-08T21:03:18.678Z,12.27
2022-12-08T21:05:52.197Z,11.77
2022-12-08T21:08:19.708Z,11.82
2022-12-08T21:10:52.245Z,11.98
2022-12-08T21:13:18.572Z,11.60
2022-12-08T21:15:45.465Z,12.07
2022-12-08T21:18:12.111Z,11.50
2022-12-08T21:20:38.535Z,11.95
2022-12-08T21:23:04.761Z,12.60
2022-12-08T21:25:31.194Z,12.25
2022-12-08T21:27:57.474Z,12.63
2022-12-08T21:30:23.864Z,13.80
2022-12-08T21:32:50.223Z,12.40
2022-12-08T21:35:16.722Z,13.13
2022-12-08T21:37:43.237Z,12.35
2022-12-08T21:40:10.114Z,12.90
2022-12-08T21:42:45.846Z,12.38
2022-12-08T21:45:14.238Z,12.48
2022-12-08T21:47:40.915Z,12.27
2022-12-08T21:50:08.173Z,12.60
2022-12-08T21:52:37.995Z,11.45
2022-12-08T21:55:04.611Z,12.50
2022-12-08T21:57:31.059Z,11.15
2022-12-08T21:59:57.380Z,10.70
2022-12-08T22:02:23.941Z,11.63
2022-12-08T22:04:52.478Z,11.18
2022-12-08T22:07:19.958Z,11.07
2022-12-08T22:09:46.425Z,11.85
2022-12-08T22:12:13.178Z,11.10
2022-12-08T22:14:40.038Z,12.40
2022-12-08T22:17:06.737Z,12.48
2022-12-08T22:19:33.424Z,12.02
2022-12-08T22:21:59.984Z,12.32
2022-12-08T22:24:26.379Z,11.27
2022-12-08T22:26:52.974Z,11.63
2022-12-08T22:29:19.513Z,11.02
2022-12-08T22:31:45.989Z,11.98
2022-12-08T22:34:14.452Z,11.77
2022-12-08T22:36:42.614Z,11.23
2022-12-08T22:39:09.848Z,11.38
2022-12-08T22:41:36.466Z,11.90
2022-12-08T22:44:05.963Z,11.70
2022-12-08T22:46:32.923Z,12.68
2022-12-08T22:48:59.414Z,11.32
2022-12-08T22:51:26.028Z,12.40
2022-12-08T22:53:52.444Z,10.35
2022-12-08T22:56:19.312Z,12.18
2022-12-08T22:58:45.670Z,10.70
2022-12-08T23:01:25.621Z,10.88
2022-12-08T23:03:52.138Z,11.65
2022-12-08T23:06:18.754Z,11.98
2022-12-08T23:08:45.449Z,10.95
2022-12-08T23:11:12.253Z,10.68
2022-12-08T23:13:39.475Z,10.95
2022-12-08T23:16:09.577Z,11.30
2022-12-08T23:18:36.095Z,10.30
2022-12-08T23:21:09.589Z,11.15
2022-12-08T23:23:36.143Z,11.57
2022-12-08T23:26:02.375Z,10.88
2022-12-08T23:28:28.621Z,11.25
2022-12-08T23:30:54.829Z,12.32
2022-12-08T23:33:21.104Z,11.60
2022-12-08T23:35:55.052Z,11.23
2022-12-08T23:38:21.291Z,11.45
2022-12-08T23:40:47.592Z,11.52
2022-12-08T23:43:13.783Z,11.25
2022-12-08T23:45:40.069Z,11.88
2022-12-08T23:48:06.595Z,11.82
2022-12-08T23:50:32.988Z,11.90
2022-12-08T23:52:59.366Z,12.40
2022-12-08T23:55:25.701Z,12.20
2022-12-08T23:57:52.027Z,12.15
